createdAt,value
2024-04-19T00:01:55.425Z,87.64
2024-04-19T00:04:22.384Z,87.73
2024-04-19T00:06:51.457Z,87.23
2024-04-19T00:09:18.416Z,87.32
2024-04-19T00:11:45.317Z,88.70
2024-04-19T00:14:12.406Z,88.67
2024-04-19T00:16:39.319Z,89.56
2024-04-19T00:19:06.551Z,90.25
2024-04-19T00:21:33.562Z,89.89
2024-04-19T00:24:00.423Z,90.01
2024-04-19T00:26:27.261Z,89.30
2024-04-19T00:28:54.240Z,89.38
2024-04-19T00:31:21.052Z,90.31
2024-04-19T00:33:49.000Z,88.45
2024-04-19T00:36:15.950Z,88.20
2024-04-19T00:38:42.779Z,88.73
2024-04-19T00:41:09.624Z,88.89
2024-04-19T00:43:36.511Z,88.94
2024-04-19T00:46:05.638Z,89.73
2024-04-19T00:48:33.482Z,88.53
2024-04-19T00:51:03.103Z,86.79
2024-04-19T00:53:33.191Z,89.19
2024-04-19T00:56:04.504Z,89.43
2024-04-19T00:58:32.692Z,90.22
2024-04-19T01:01:06.806Z,89.55
2024-04-19T01:03:33.913Z,89.21
2024-04-19T01:06:00.988Z,89.52
2024-04-19T01:08:29.173Z,88.71
2024-04-19T01:10:56.265Z,90.76
2024-04-19T01:13:23.202Z,88.95
2024-04-19T01:15:50.176Z,88.94
2024-04-19T01:18:17.306Z,88.39
2024-04-19T01:20:45.345Z,90.04
2024-04-19T01:23:15.072Z,89.21
2024-04-19T01:25:42.941Z,89.45
2024-04-19T01:28:11.694Z,88.71
2024-04-19T01:30:46.451Z,89.06
2024-04-19T01:33:14.771Z,88.95
2024-04-19T01:35:41.822Z,88.82
2024-04-19T01:38:08.783Z,87.68
2024-04-19T01:40:35.737Z,87.21
2024-04-19T01:43:02.579Z,88.02
2024-04-19T01:45:29.559Z,87.78
2024-04-19T01:47:57.240Z,87.98
2024-04-19T01:50:24.126Z,88.97
2024-04-19T01:52:50.963Z,89.44
2024-04-19T01:55:18.998Z,88.64
2024-04-19T01:57:46.022Z,89.39
2024-04-19T02:00:13.555Z,89.45
2024-04-19T02:02:40.612Z,89.35
2024-04-19T02:05:07.615Z,89.14
2024-04-19T02:07:34.407Z,88.48
2024-04-19T02:10:01.320Z,89.65
2024-04-19T02:12:28.195Z,89.15
2024-04-19T02:14:55.178Z,89.04
2024-04-19T02:17:22.068Z,88.52
2024-04-19T02:19:48.970Z,88.46
2024-04-19T02:22:15.778Z,90.19
2024-04-19T02:24:42.792Z,91.12
2024-04-19T02:27:29.784Z,91.09
2024-04-19T02:30:15.194Z,90.51
2024-04-19T02:32:42.046Z,89.36
2024-04-19T02:35:08.910Z,89.27
2024-04-19T02:37:35.783Z,89.32
2024-04-19T02:40:02.880Z,88.71
2024-04-19T02:42:29.864Z,87.83
2024-04-19T02:44:56.755Z,87.80
2024-04-19T02:47:23.640Z,89.44
2024-04-19T02:49:50.476Z,89.95
2024-04-19T02:52:17.511Z,91.02
2024-04-19T02:54:44.536Z,92.57
2024-04-19T02:57:11.566Z,92.58
2024-04-19T02:59:38.445Z,93.01
2024-04-19T03:02:05.519Z,94.19
2024-04-19T03:04:32.464Z,93.51
2024-04-19T03:06:59.378Z,92.25
2024-04-19T03:09:26.248Z,91.26
2024-04-19T03:11:56.174Z,90.58
2024-04-19T03:14:23.559Z,91.74
2024-04-19T03:16:52.883Z,92.16
2024-04-19T03:19:19.829Z,92.17
2024-04-19T03:21:46.797Z,91.94
2024-04-19T03:24:13.699Z,91.04
2024-04-19T03:26:40.523Z,91.46
2024-04-19T03:29:07.571Z,91.66
2024-04-19T03:31:34.402Z,90.69
2024-04-19T03:34:01.458Z,90.37
2024-04-19T03:36:28.527Z,90.38
2024-04-19T03:38:55.406Z,89.91
2024-04-19T03:41:22.221Z,90.50
2024-04-19T03:44:08.323Z,90.83
2024-04-19T03:46:35.316Z,91.54
2024-04-19T03:49:02.266Z,92.35
2024-04-19T03:51:29.184Z,91.53
2024-04-19T03:53:56.019Z,92.16
2024-04-19T03:56:24.601Z,92.69
2024-04-19T03:58:53.524Z,93.20
2024-04-19T04:01:20.490Z,93.02
2024-04-19T04:03:47.315Z,92.99
2024-04-19T04:06:14.278Z,92.39
2024-04-19T04:08:41.123Z,92.01
2024-04-19T04:11:12.800Z,91.81
2024-04-19T04:13:42.764Z,90.82
2024-04-19T04:16:10.566Z,89.70
2024-04-19T04:18:37.671Z,87.82
2024-04-19T04:21:05.076Z,86.89
2024-04-19T04:23:32.658Z,86.80
2024-04-19T04:25:59.861Z,87.76
2024-04-19T04:28:26.881Z,88.31
2024-04-19T04:30:53.840Z,86.58
2024-04-19T04:33:21.201Z,86.62
2024-04-19T04:35:48.298Z,86.24
2024-04-19T04:38:15.259Z,85.79
2024-04-19T04:40:42.140Z,86.19
2024-04-19T04:43:09.004Z,85.08
2024-04-19T04:45:35.883Z,83.52
2024-04-19T04:48:02.885Z,83.71
2024-04-19T04:50:29.841Z,83.12
2024-04-19T04:53:02.966Z,82.51
2024-04-19T04:55:31.484Z,82.16
2024-04-19T04:57:58.578Z,80.64
2024-04-19T05:00:30.118Z,80.20
2024-04-19T05:02:58.775Z,81.19
2024-04-19T05:05:25.879Z,80.95
2024-04-19T05:07:53.155Z,80.49
2024-04-19T05:10:21.286Z,79.16
2024-04-19T05:12:48.447Z,79.49
2024-04-19T05:15:15.629Z,77.78
2024-04-19T05:17:44.386Z,76.84
2024-04-19T05:20:11.391Z,76.56
2024-04-19T05:22:39.467Z,77.06
2024-04-19T05:25:07.835Z,75.66
2024-04-19T05:27:35.366Z,74.62
2024-04-19T05:30:02.616Z,74.73
2024-04-19T05:32:29.565Z,72.21
2024-04-19T05:34:56.438Z,73.41
2024-04-19T05:37:23.367Z,72.17
2024-04-19T05:39:50.309Z,72.30
2024-04-19T05:42:17.494Z,71.20
2024-04-19T05:44:44.460Z,71.32
2024-04-19T05:47:11.366Z,69.85
2024-04-19T05:49:38.280Z,68.87
2024-04-19T05:52:05.400Z,68.27
2024-04-19T05:54:34.404Z,67.74
2024-04-19T05:57:02.079Z,65.47
2024-04-19T05:59:38.041Z,64.66
2024-04-19T06:02:04.999Z,64.60
2024-04-19T06:04:31.985Z,62.89
2024-04-19T06:06:59.025Z,62.06
2024-04-19T06:09:25.984Z,61.76
2024-04-19T06:11:52.858Z,62.92
2024-04-19T06:14:19.761Z,63.14
2024-04-19T06:16:46.574Z,61.31
2024-04-19T07:35:08.171Z,44.79
2024-04-19T07:37:35.017Z,43.86
2024-04-19T07:40:01.882Z,48.64
2024-04-19T07:42:34.090Z,46.98
2024-04-19T07:45:01.306Z,46.68
2024-04-19T07:47:29.443Z,47.46
2024-04-19T07:49:56.478Z,47.73
2024-04-19T07:52:25.814Z,47.33
2024-04-19T07:54:53.033Z,49.46
2024-04-19T07:57:19.946Z,46.31
2024-04-19T07:59:46.767Z,46.49
2024-04-19T08:02:14.369Z,45.75
2024-04-19T08:04:41.330Z,45.56
2024-04-19T08:07:09.686Z,44.54
2024-04-19T08:09:39.379Z,45.88
2024-04-19T08:12:08.051Z,45.61
2024-04-19T08:14:35.346Z,40.53
2024-04-19T08:17:02.283Z,39.32
2024-04-19T08:19:29.968Z,39.22
2024-04-19T08:21:56.905Z,39.66
2024-04-19T08:24:23.777Z,39.77
2024-04-19T08:26:50.605Z,41.98
2024-04-19T08:29:22.400Z,41.54
2024-04-19T08:31:56.906Z,40.75
2024-04-19T08:34:23.801Z,40.64
2024-04-19T08:36:50.695Z,43.22
2024-04-19T08:39:17.613Z,42.04
2024-04-19T08:41:48.944Z,41.55
2024-04-19T08:44:17.708Z,42.27
2024-04-19T08:46:45.516Z,42.95
2024-04-19T08:49:16.101Z,42.54
2024-04-19T08:51:55.764Z,42.57
2024-04-19T08:54:33.036Z,42.00
2024-04-19T08:57:00.900Z,40.31
2024-04-19T08:59:32.081Z,40.36
2024-04-19T09:01:59.290Z,40.31
2024-04-19T09:04:26.313Z,41.91
2024-04-19T09:06:53.413Z,40.42
2024-04-19T09:09:21.107Z,39.73
2024-04-19T09:11:50.841Z,42.07
2024-04-19T09:14:17.887Z,39.79
2024-04-19T09:16:44.693Z,39.62
2024-04-19T09:19:12.231Z,39.98
2024-04-19T09:21:39.033Z,39.45
2024-04-19T09:24:10.927Z,38.48
2024-04-19T09:26:37.829Z,39.68
2024-04-19T09:29:06.970Z,37.27
2024-04-19T09:31:33.919Z,39.21
2024-04-19T09:34:00.763Z,39.38
2024-04-19T09:36:27.846Z,40.24
2024-04-19T09:38:56.530Z,40.11
2024-04-19T09:41:25.470Z,40.84
2024-04-19T09:43:52.673Z,39.48
2024-04-19T09:46:33.210Z,39.14
2024-04-19T09:49:04.898Z,39.96
2024-04-19T09:51:48.288Z,39.19
2024-04-19T09:54:16.537Z,38.79
2024-04-19T09:56:57.845Z,38.90
2024-04-19T09:59:25.767Z,38.53
2024-04-19T10:01:53.421Z,38.02
2024-04-19T10:04:24.534Z,38.52
2024-04-19T10:06:53.471Z,39.34
2024-04-19T10:09:27.082Z,40.09
2024-04-19T10:11:57.690Z,40.01
2024-04-19T10:14:24.809Z,39.65
2024-04-19T10:16:51.739Z,39.79
2024-04-19T10:19:19.027Z,38.74
2024-04-19T10:21:46.079Z,37.69
2024-04-19T10:24:17.891Z,38.13
2024-04-19T10:26:55.271Z,38.63
2024-04-19T10:29:23.657Z,37.80
2024-04-19T10:31:52.656Z,38.08
2024-04-19T10:34:20.323Z,37.62
2024-04-19T10:36:47.704Z,37.46
2024-04-19T10:39:14.952Z,38.78
2024-04-19T10:41:54.297Z,36.70
2024-04-19T10:44:22.165Z,37.49
2024-04-19T10:46:51.223Z,37.36
2024-04-19T10:49:26.147Z,39.70
2024-04-19T10:51:53.708Z,39.30
2024-04-19T10:54:20.739Z,39.43
2024-04-19T10:56:48.634Z,39.41
2024-04-19T10:59:15.441Z,39.13
2024-04-19T11:01:44.031Z,39.89
2024-04-19T11:04:13.081Z,39.45
2024-04-19T11:06:41.176Z,40.32
2024-04-19T11:09:08.898Z,39.35
2024-04-19T11:11:39.682Z,38.90
2024-04-19T11:14:12.708Z,38.56
2024-04-19T11:16:39.527Z,38.59
2024-04-19T11:19:06.553Z,37.99
2024-04-19T11:21:34.704Z,38.68
2024-04-19T11:24:01.642Z,38.52
2024-04-19T11:26:28.789Z,38.84
2024-04-19T11:28:56.940Z,39.22
2024-04-19T11:31:23.828Z,38.48
2024-04-19T11:33:57.180Z,38.31
2024-04-19T11:36:24.925Z,38.03
2024-04-19T11:38:52.229Z,38.63
2024-04-19T11:41:19.165Z,39.04
2024-04-19T11:43:46.082Z,38.59
2024-04-19T11:46:20.851Z,38.00
2024-04-19T11:48:47.728Z,37.65
2024-04-19T11:51:15.557Z,37.54
2024-04-19T11:53:42.417Z,37.48
2024-04-19T11:56:09.259Z,37.47
2024-04-19T11:58:36.796Z,37.14
2024-04-19T12:01:03.929Z,37.58
2024-04-19T12:03:32.161Z,38.06
2024-04-19T12:05:59.912Z,37.70
2024-04-19T12:08:26.896Z,37.52
2024-04-19T12:10:53.775Z,35.86
2024-04-19T12:14:07.848Z,35.86
2024-04-19T12:16:35.529Z,37.17
2024-04-19T12:18:54.817Z,36.62
2024-04-19T12:21:22.551Z,36.59
2024-04-19T12:23:51.051Z,36.02
2024-04-19T12:26:19.558Z,36.35
2024-04-19T12:28:54.291Z,37.34
2024-04-19T12:31:24.902Z,37.33
2024-04-19T12:33:52.957Z,38.13
2024-04-19T12:36:20.162Z,38.52
2024-04-19T12:38:47.158Z,37.40
2024-04-19T12:41:13.983Z,37.01
2024-04-19T12:43:40.928Z,38.91
2024-04-19T12:46:08.050Z,38.99
2024-04-19T12:48:35.243Z,39.92
2024-04-19T12:51:02.257Z,38.17
2024-04-19T12:53:29.409Z,39.82
2024-04-19T12:55:56.672Z,38.10
2024-04-19T12:58:24.099Z,38.85
2024-04-19T13:00:51.043Z,39.55
2024-04-19T13:03:18.020Z,38.82
2024-04-19T13:05:44.993Z,38.13
2024-04-19T13:08:11.933Z,38.58
2024-04-19T13:10:42.436Z,37.83
2024-04-19T13:13:14.341Z,39.44
2024-04-19T13:15:41.687Z,38.36
2024-04-19T13:18:09.203Z,37.78
2024-04-19T13:20:36.842Z,37.37
2024-04-19T13:23:04.035Z,38.25
2024-04-19T13:25:30.988Z,37.18
2024-04-19T13:27:57.930Z,37.80
2024-04-19T13:30:25.344Z,37.87
2024-04-19T13:32:52.323Z,38.16
2024-04-19T13:35:19.350Z,38.21
2024-04-19T13:37:46.246Z,37.32
2024-04-19T13:40:13.221Z,37.84
2024-04-19T13:42:40.188Z,37.80
2024-04-19T13:45:07.662Z,35.01
2024-04-19T13:47:34.675Z,34.22
2024-04-19T13:50:04.441Z,35.32
2024-04-19T13:52:31.339Z,36.15
2024-04-19T13:54:58.355Z,36.28
2024-04-19T13:57:25.726Z,36.20
2024-04-19T13:59:52.739Z,37.25
2024-04-19T14:02:19.675Z,37.10
2024-04-19T14:04:46.604Z,37.93
2024-04-19T14:07:13.457Z,38.07
2024-04-19T14:09:40.890Z,37.01
2024-04-19T14:12:08.045Z,38.14
2024-04-19T14:14:34.933Z,37.37
2024-04-19T14:17:02.032Z,38.25
2024-04-19T14:19:29.402Z,38.84
2024-04-19T14:21:56.482Z,38.40
2024-04-19T14:24:23.844Z,38.29
2024-04-19T14:26:51.271Z,37.91
2024-04-19T14:29:21.043Z,37.61
2024-04-19T14:31:47.863Z,38.98
2024-04-19T14:34:14.748Z,41.46
2024-04-19T14:36:43.239Z,42.73
2024-04-19T14:39:11.072Z,42.81
2024-04-19T14:41:38.600Z,43.87
2024-04-19T14:44:05.502Z,43.64
2024-04-19T14:46:32.659Z,44.07
2024-04-19T14:48:59.679Z,43.21
2024-04-19T14:51:26.652Z,43.79
2024-04-19T14:53:53.998Z,43.88
2024-04-19T14:56:22.178Z,43.66
2024-04-19T14:58:59.504Z,42.46
2024-04-19T15:01:30.795Z,42.76
2024-04-19T15:03:58.542Z,42.28
2024-04-19T15:06:30.439Z,42.86
2024-04-19T15:08:57.268Z,43.37
2024-04-19T15:11:24.167Z,43.60
2024-04-19T15:13:51.048Z,44.94
2024-04-19T15:16:18.077Z,44.69
2024-04-19T15:18:45.226Z,44.72
2024-04-19T15:21:12.055Z,45.15
2024-04-19T15:23:42.093Z,45.83
2024-04-19T15:26:09.334Z,46.10
2024-04-19T15:28:36.290Z,46.27
2024-04-19T15:31:03.500Z,46.28
2024-04-19T15:33:30.763Z,45.89
2024-04-19T15:35:58.348Z,47.12
2024-04-19T15:38:25.188Z,47.57
2024-04-19T15:40:52.121Z,47.58
2024-04-19T15:43:20.447Z,48.02
2024-04-19T15:45:47.378Z,48.50
2024-04-19T15:48:17.129Z,48.35
2024-04-19T15:50:44.488Z,48.98
2024-04-19T15:53:11.381Z,48.91
2024-04-19T15:55:38.270Z,48.73
2024-04-19T15:58:05.407Z,48.99
2024-04-19T16:00:32.501Z,49.05
2024-04-19T16:02:59.623Z,49.37
2024-04-19T16:05:26.635Z,49.83
2024-04-19T16:07:53.643Z,49.80
2024-04-19T16:10:20.509Z,50.20
2024-04-19T16:12:47.393Z,50.25
2024-04-19T16:15:14.412Z,49.51
2024-04-19T16:17:41.433Z,50.78
2024-04-19T16:20:10.353Z,50.86
2024-04-19T16:22:38.160Z,50.24
2024-04-19T16:25:05.293Z,50.45
2024-04-19T16:27:32.292Z,50.94
2024-04-19T16:29:59.108Z,51.02
2024-04-19T16:32:26.645Z,51.16
2024-04-19T16:34:53.495Z,50.33
2024-04-19T16:37:22.208Z,51.17
2024-04-19T16:39:51.168Z,50.79
2024-04-19T16:42:18.168Z,51.09
2024-04-19T16:44:48.438Z,50.86
2024-04-19T16:47:15.587Z,51.19
2024-04-19T16:49:42.519Z,50.92
2024-04-19T16:52:11.663Z,50.37
2024-04-19T16:54:39.059Z,50.83
2024-04-19T16:57:06.058Z,50.23
2024-04-19T16:59:32.873Z,50.97
2024-04-19T17:01:59.953Z,51.31
2024-04-19T17:04:27.029Z,50.78
2024-04-19T17:06:58.504Z,50.48
2024-04-19T17:09:25.769Z,50.64
2024-04-19T17:11:52.816Z,50.55
2024-04-19T17:14:20.027Z,51.20
2024-04-19T17:16:48.475Z,51.77
2024-04-19T17:19:16.927Z,51.99
2024-04-19T17:21:43.912Z,51.47
2024-04-19T17:24:10.765Z,52.03
2024-04-19T17:26:37.808Z,52.43
2024-04-19T17:29:04.702Z,52.24
2024-04-19T17:31:31.797Z,52.65
2024-04-19T17:33:58.867Z,52.67
2024-04-19T17:36:26.449Z,52.87
2024-04-19T17:38:53.388Z,52.57
2024-04-19T17:41:20.406Z,52.77
2024-04-19T17:43:47.396Z,52.91
2024-04-19T17:46:14.419Z,51.58
2024-04-19T17:48:41.360Z,51.99
2024-04-19T17:51:08.349Z,51.52
2024-04-19T17:53:35.273Z,51.34
2024-04-19T17:56:02.199Z,52.30
2024-04-19T17:58:29.106Z,52.40
2024-04-19T18:00:56.135Z,53.13
2024-04-19T18:03:23.155Z,53.12
2024-04-19T18:05:50.024Z,53.82
2024-04-19T18:08:16.863Z,54.72
2024-04-19T18:10:43.782Z,55.61
2024-04-19T18:13:10.655Z,56.23
2024-04-19T18:15:37.572Z,56.09
2024-04-19T18:18:05.132Z,56.09
2024-04-19T18:20:32.235Z,56.40
2024-04-19T18:23:05.176Z,57.08
2024-04-19T18:25:34.212Z,57.44
2024-04-19T18:28:01.380Z,57.63
2024-04-19T18:30:29.444Z,58.05
2024-04-19T18:32:57.861Z,57.97
2024-04-19T18:35:24.673Z,58.10
2024-04-19T18:37:51.645Z,58.51
2024-04-19T18:40:18.771Z,59.53
2024-04-19T18:42:51.910Z,59.71
2024-04-19T18:45:21.587Z,59.63
2024-04-19T18:47:48.515Z,60.41
2024-04-19T18:50:15.475Z,60.95
2024-04-19T18:52:43.423Z,61.10
2024-04-19T18:55:10.448Z,62.31
2024-04-19T18:57:37.556Z,62.04
2024-04-19T19:00:06.420Z,63.40
2024-04-19T19:02:34.629Z,63.29
2024-04-19T19:05:01.543Z,63.87
2024-04-19T19:07:28.382Z,63.26
2024-04-19T19:09:56.514Z,62.72
2024-04-19T19:12:23.987Z,62.12
2024-04-19T19:14:51.299Z,61.89
2024-04-19T19:17:18.117Z,61.50
2024-04-19T19:19:48.118Z,61.49
2024-04-19T19:22:16.964Z,61.59
2024-04-19T19:24:43.907Z,62.15
2024-04-19T19:27:11.284Z,63.08
2024-04-19T19:29:38.103Z,63.22
2024-04-19T19:32:05.347Z,63.73
2024-04-19T19:34:33.378Z,64.10
2024-04-19T19:37:00.429Z,64.74
2024-04-19T19:39:38.777Z,64.92
2024-04-19T19:42:06.052Z,65.11
2024-04-19T19:44:35.007Z,66.15
2024-04-19T19:47:01.990Z,66.75
2024-04-19T19:49:29.079Z,68.25
2024-04-19T19:51:56.028Z,67.74
2024-04-19T19:54:24.453Z,67.92
2024-04-19T19:56:51.402Z,67.97
2024-04-19T19:59:36.730Z,68.08
2024-04-19T20:02:22.140Z,72.64
2024-04-19T20:05:07.519Z,73.70
2024-04-19T20:07:34.525Z,70.82
2024-04-19T20:10:02.205Z,70.75
2024-04-19T20:12:29.549Z,70.87
2024-04-19T20:14:56.457Z,69.89
2024-04-19T20:17:23.377Z,69.90
2024-04-19T20:19:50.271Z,69.87
2024-04-19T20:22:17.079Z,70.10
2024-04-19T20:24:44.089Z,69.99
2024-04-19T20:27:10.922Z,70.14
2024-04-19T20:29:37.729Z,70.90
2024-04-19T20:32:06.727Z,71.08
2024-04-19T20:34:33.602Z,71.41
2024-04-19T20:37:00.597Z,71.55
2024-04-19T20:39:27.524Z,72.00
2024-04-19T20:41:54.670Z,72.23
2024-04-19T20:44:21.498Z,72.16
2024-04-19T20:46:48.413Z,71.91
2024-04-19T20:49:15.385Z,71.93
2024-04-19T20:51:42.246Z,71.89
2024-04-19T20:54:09.099Z,73.54
2024-04-19T20:56:36.017Z,73.37
2024-04-19T20:59:02.875Z,73.95
2024-04-19T21:01:29.798Z,73.65
2024-04-19T21:03:56.719Z,73.43
2024-04-19T21:06:23.552Z,73.61
2024-04-19T21:08:50.394Z,73.53
2024-04-19T21:11:17.432Z,73.72
2024-04-19T21:13:44.831Z,73.69
2024-04-19T21:16:16.100Z,72.86
2024-04-19T21:18:44.395Z,73.20
2024-04-19T21:21:11.470Z,73.47
2024-04-19T21:23:38.705Z,73.56
2024-04-19T21:26:09.584Z,73.35
2024-04-19T21:28:42.549Z,73.36
2024-04-19T21:31:09.612Z,73.22
2024-04-19T21:33:37.456Z,73.61
2024-04-19T21:36:04.923Z,73.20
2024-04-19T21:38:32.865Z,73.71
2024-04-19T21:41:06.863Z,74.09
2024-04-19T21:43:34.340Z,73.49
2024-04-19T21:46:08.000Z,73.80
2024-04-19T21:48:36.376Z,74.12
2024-04-19T21:51:04.595Z,73.56
2024-04-19T21:53:32.374Z,73.39
2024-04-19T21:55:59.286Z,72.59
2024-04-19T21:58:26.085Z,72.58
2024-04-19T22:00:53.004Z,72.89
2024-04-19T22:03:19.932Z,72.10
2024-04-19T22:05:46.744Z,72.01
2024-04-19T22:08:14.360Z,72.08
2024-04-19T22:10:41.166Z,72.15
2024-04-19T22:13:09.226Z,71.83
2024-04-19T22:15:39.734Z,71.97
2024-04-19T22:18:06.838Z,71.24
2024-04-19T22:20:33.821Z,71.56
2024-04-19T22:23:01.048Z,70.98
2024-04-19T22:25:28.015Z,72.05
2024-04-19T22:27:54.998Z,72.11
2024-04-19T22:30:21.979Z,72.00
2024-04-19T22:32:48.822Z,71.88
2024-04-19T22:35:15.850Z,71.68
2024-04-19T22:37:42.733Z,71.10
2024-04-19T22:40:10.075Z,72.81
2024-04-19T22:42:36.921Z,72.70
2024-04-19T22:45:03.975Z,74.16
2024-04-19T22:47:30.850Z,74.49
2024-04-19T22:49:57.783Z,74.83
2024-04-19T22:52:24.620Z,74.71
2024-04-19T22:54:51.489Z,73.45
2024-04-19T22:57:18.806Z,72.63
2024-04-19T22:59:45.712Z,71.94
2024-04-19T23:02:12.608Z,72.97
2024-04-19T23:04:39.463Z,74.78
2024-04-19T23:07:06.371Z,74.58
2024-04-19T23:09:33.418Z,74.87
2024-04-19T23:12:00.358Z,76.15
2024-04-19T23:14:27.287Z,77.26
2024-04-19T23:16:54.101Z,77.41
2024-04-19T23:19:20.914Z,77.98
2024-04-19T23:21:47.762Z,78.51
2024-04-19T23:24:14.628Z,79.83
2024-04-19T23:26:41.450Z,80.91
2024-04-19T23:29:08.349Z,81.42
2024-04-19T23:31:35.158Z,80.43
2024-04-19T23:34:02.041Z,81.02
2024-04-19T23:36:28.923Z,80.92
2024-04-19T23:38:55.739Z,81.38
2024-04-19T23:41:24.319Z,80.59
2024-04-19T23:43:51.859Z,79.61
2024-04-19T23:46:18.738Z,79.01
2024-04-19T23:48:45.679Z,79.25
2024-04-19T23:51:14.827Z,80.12
2024-04-19T23:53:42.110Z,79.72
2024-04-19T23:56:08.990Z,80.30
2024-04-19T23:58:36.080Z,81.02
